sensor_id;sensor_type;location;lat;lon;timestamp;pressure;altitude;pressure_sealevel;temperature;humidity
64644;BME280;51056;50.330;7.914;2022-11-20T00:02:53;100306.72;;;3.00;73.25
64644;BME280;51056;50.330;7.914;2022-11-20T00:06:05;100308.81;;;2.85;74.96
64644;BME280;51056;50.330;7.914;2022-11-20T00:09:09;100298.41;;;2.88;74.07
64644;BME280;51056;50.330;7.914;2022-11-20T00:12:12;100300.31;;;2.79;74.78
64644;BME280;51056;50.330;7.914;2022-11-20T00:15:19;100288.31;;;2.78;74.71
64644;BME280;51056;50.330;7.914;2022-11-20T00:18:23;100290.34;;;2.66;74.48
64644;BME280;51056;50.330;7.914;2022-11-20T00:21:27;100293.06;;;2.60;75.83
64644;BME280;51056;50.330;7.914;2022-11-20T00:24:31;100291.09;;;2.69;74.61
64644;BME280;51056;50.330;7.914;2022-11-20T00:27:34;100297.19;;;2.67;75.77
64644;BME280;51056;50.330;7.914;2022-11-20T00:30:44;100299.94;;;2.59;76.77
64644;BME280;51056;50.330;7.914;2022-11-20T00:33:48;100303.88;;;2.74;76.43
64644;BME280;51056;50.330;7.914;2022-11-20T00:36:54;100299.41;;;2.82;75.03
64644;BME280;51056;50.330;7.914;2022-11-20T00:39:57;100280.25;;;2.91;75.26
64644;BME280;51056;50.330;7.914;2022-11-20T00:43:01;100290.03;;;2.78;77.17
64644;BME280;51056;50.330;7.914;2022-11-20T00:46:07;100291.03;;;2.72;77.33
64644;BME280;51056;50.330;7.914;2022-11-20T00:49:11;100292.75;;;3.08;76.12
64644;BME280;51056;50.330;7.914;2022-11-20T00:52:14;100290.44;;;2.97;77.14
64644;BME280;51056;50.330;7.914;2022-11-20T00:55:17;100285.44;;;2.89;77.40
64644;BME280;51056;50.330;7.914;2022-11-20T00:58:21;100287.41;;;2.79;76.36
64644;BME280;51056;50.330;7.914;2022-11-20T01:01:28;100285.16;;;2.66;76.77
64644;BME280;51056;50.330;7.914;2022-11-20T01:04:34;100276.03;;;2.52;76.75
64644;BME280;51056;50.330;7.914;2022-11-20T01:07:37;100283.22;;;2.75;77.47
64644;BME280;51056;50.330;7.914;2022-11-20T01:10:40;100296.53;;;2.94;76.07
64644;BME280;51056;50.330;7.914;2022-11-20T01:13:54;100297.88;;;2.73;75.75
64644;BME280;51056;50.330;7.914;2022-11-20T01:16:58;100296.59;;;2.91;75.92
64644;BME280;51056;50.330;7.914;2022-11-20T01:20:02;100285.91;;;3.07;75.52
64644;BME280;51056;50.330;7.914;2022-11-20T01:23:05;100290.25;;;3.05;75.01
64644;BME280;51056;50.330;7.914;2022-11-20T01:26:11;100294.66;;;2.65;76.62
64644;BME280;51056;50.330;7.914;2022-11-20T01:29:18;100294.25;;;2.80;78.00
64644;BME280;51056;50.330;7.914;2022-11-20T01:32:21;100296.75;;;2.85;76.04
64644;BME280;51056;50.330;7.914;2022-11-20T01:35:25;100292.56;;;2.79;76.86
64644;BME280;51056;50.330;7.914;2022-11-20T01:38:29;100284.94;;;2.75;76.51
64644;BME280;51056;50.330;7.914;2022-11-20T01:41:34;100279.72;;;2.78;76.15
64644;BME280;51056;50.330;7.914;2022-11-20T01:44:58;100280.78;;;2.68;75.92
64644;BME280;51056;50.330;7.914;2022-11-20T01:48:02;100278.97;;;2.73;76.43
64644;BME280;51056;50.330;7.914;2022-11-20T01:51:13;100282.88;;;2.89;77.29
64644;BME280;51056;50.330;7.914;2022-11-20T01:54:25;100266.31;;;2.96;77.54
64644;BME280;51056;50.330;7.914;2022-11-20T01:57:35;100276.91;;;2.87;78.88
64644;BME280;51056;50.330;7.914;2022-11-20T02:00:40;100273.44;;;2.88;77.04
64644;BME280;51056;50.330;7.914;2022-11-20T02:03:43;100278.41;;;2.96;76.82
64644;BME280;51056;50.330;7.914;2022-11-20T02:07:00;100279.78;;;2.75;77.52
64644;BME280;51056;50.330;7.914;2022-11-20T02:10:05;100277.00;;;2.83;77.33
64644;BME280;51056;50.330;7.914;2022-11-20T02:13:12;100264.69;;;2.94;77.25
64644;BME280;51056;50.330;7.914;2022-11-20T02:16:37;100266.19;;;3.02;77.19
64644;BME280;51056;50.330;7.914;2022-11-20T02:19:42;100276.47;;;2.70;77.33
64644;BME280;51056;50.330;7.914;2022-11-20T02:26:02;100270.00;;;2.88;77.07
64644;BME280;51056;50.330;7.914;2022-11-20T02:29:08;100268.97;;;2.95;77.29
64644;BME280;51056;50.330;7.914;2022-11-20T02:32:26;100264.00;;;2.87;77.65
64644;BME280;51056;50.330;7.914;2022-11-20T02:38:33;100263.81;;;2.93;77.66
64644;BME280;51056;50.330;7.914;2022-11-20T02:41:40;100255.06;;;2.99;77.28
64644;BME280;51056;50.330;7.914;2022-11-20T02:44:43;100258.91;;;2.84;76.37
64644;BME280;51056;50.330;7.914;2022-11-20T02:47:47;100265.09;;;2.77;77.43
64644;BME280;51056;50.330;7.914;2022-11-20T02:50:49;100272.00;;;2.76;76.45
64644;BME280;51056;50.330;7.914;2022-11-20T02:53:53;100263.91;;;2.90;76.72
64644;BME280;51056;50.330;7.914;2022-11-20T02:56:56;100262.41;;;2.82;76.84
64644;BME280;51056;50.330;7.914;2022-11-20T03:00:00;100264.16;;;2.79;77.12
64644;BME280;51056;50.330;7.914;2022-11-20T03:03:04;100258.59;;;2.62;78.04
64644;BME280;51056;50.330;7.914;2022-11-20T03:06:07;100251.09;;;2.87;76.48
64644;BME280;51056;50.330;7.914;2022-11-20T03:09:13;100245.31;;;2.76;76.95
64644;BME280;51056;50.330;7.914;2022-11-20T03:12:17;100242.81;;;2.74;77.40
64644;BME280;51056;50.330;7.914;2022-11-20T03:15:20;100246.16;;;2.78;77.20
64644;BME280;51056;50.330;7.914;2022-11-20T03:18:24;100243.41;;;2.84;77.34
64644;BME280;51056;50.330;7.914;2022-11-20T03:21:27;100240.38;;;2.67;77.44
64644;BME280;51056;50.330;7.914;2022-11-20T03:24:30;100247.31;;;2.65;77.16
64644;BME280;51056;50.330;7.914;2022-11-20T03:27:34;100244.72;;;2.65;76.72
64644;BME280;51056;50.330;7.914;2022-11-20T03:30:38;100246.44;;;2.66;77.23
64644;BME280;51056;50.330;7.914;2022-11-20T03:33:42;100239.28;;;2.77;76.77
64644;BME280;51056;50.330;7.914;2022-11-20T03:36:45;100237.28;;;2.88;76.08
64644;BME280;51056;50.330;7.914;2022-11-20T03:39:49;100220.50;;;3.05;75.68
64644;BME280;51056;50.330;7.914;2022-11-20T03:42:51;100225.56;;;2.75;76.93
64644;BME280;51056;50.330;7.914;2022-11-20T03:45:56;100233.25;;;2.78;77.16
64644;BME280;51056;50.330;7.914;2022-11-20T03:48:59;100226.78;;;2.94;76.31
64644;BME280;51056;50.330;7.914;2022-11-20T03:52:04;100234.03;;;2.80;76.61
64644;BME280;51056;50.330;7.914;2022-11-20T03:55:07;100236.06;;;2.67;76.80
64644;BME280;51056;50.330;7.914;2022-11-20T03:58:11;100235.22;;;2.67;77.18
64644;BME280;51056;50.330;7.914;2022-11-20T04:01:20;100242.31;;;2.93;76.82
64644;BME280;51056;50.330;7.914;2022-11-20T04:04:27;100241.53;;;2.91;76.36
64644;BME280;51056;50.330;7.914;2022-11-20T04:07:30;100241.31;;;2.98;75.78
64644;BME280;51056;50.330;7.914;2022-11-20T04:10:34;100232.91;;;2.90;75.49
64644;BME280;51056;50.330;7.914;2022-11-20T04:13:38;100239.47;;;3.03;75.16
64644;BME280;51056;50.330;7.914;2022-11-20T04:16:42;100226.22;;;2.83;75.64
64644;BME280;51056;50.330;7.914;2022-11-20T04:19:45;100229.22;;;3.00;75.16
64644;BME280;51056;50.330;7.914;2022-11-20T04:22:48;100233.09;;;2.84;76.98
64644;BME280;51056;50.330;7.914;2022-11-20T04:25:52;100222.50;;;2.93;76.93
64644;BME280;51056;50.330;7.914;2022-11-20T04:28:58;100226.13;;;2.86;75.81
64644;BME280;51056;50.330;7.914;2022-11-20T04:32:02;100226.19;;;2.85;76.41
64644;BME280;51056;50.330;7.914;2022-11-20T04:35:05;100225.34;;;2.84;76.83
64644;BME280;51056;50.330;7.914;2022-11-20T04:38:09;100221.03;;;2.83;76.48
64644;BME280;51056;50.330;7.914;2022-11-20T04:41:14;100225.94;;;2.60;77.96
64644;BME280;51056;50.330;7.914;2022-11-20T04:44:18;100230.66;;;2.78;77.26
64644;BME280;51056;50.330;7.914;2022-11-20T04:47:21;100230.69;;;2.76;77.05
64644;BME280;51056;50.330;7.914;2022-11-20T04:50:25;100229.31;;;2.97;76.78
64644;BME280;51056;50.330;7.914;2022-11-20T04:53:28;100229.63;;;2.85;76.63
64644;BME280;51056;50.330;7.914;2022-11-20T04:56:34;100224.47;;;2.84;76.81
64644;BME280;51056;50.330;7.914;2022-11-20T04:59:38;100224.91;;;2.67;77.55
64644;BME280;51056;50.330;7.914;2022-11-20T05:02:42;100225.88;;;2.61;78.02
64644;BME280;51056;50.330;7.914;2022-11-20T05:05:46;100212.97;;;2.63;78.51
64644;BME280;51056;50.330;7.914;2022-11-20T05:08:49;100207.78;;;2.63;78.29
64644;BME280;51056;50.330;7.914;2022-11-20T05:11:52;100208.84;;;2.55;78.71
64644;BME280;51056;50.330;7.914;2022-11-20T05:14:56;100204.03;;;2.76;78.91
64644;BME280;51056;50.330;7.914;2022-11-20T05:17:59;100208.94;;;2.85;78.44
64644;BME280;51056;50.330;7.914;2022-11-20T05:21:04;100216.66;;;2.87;77.72
64644;BME280;51056;50.330;7.914;2022-11-20T05:24:07;100212.09;;;2.96;77.56
64644;BME280;51056;50.330;7.914;2022-11-20T05:27:10;100208.88;;;2.88;77.20
64644;BME280;51056;50.330;7.914;2022-11-20T05:30:13;100207.34;;;2.81;77.36
64644;BME280;51056;50.330;7.914;2022-11-20T05:33:17;100203.44;;;2.65;78.09
64644;BME280;51056;50.330;7.914;2022-11-20T05:36:20;100202.19;;;2.79;78.31
64644;BME280;51056;50.330;7.914;2022-11-20T05:39:27;100196.84;;;2.53;78.38
64644;BME280;51056;50.330;7.914;2022-11-20T05:42:30;100207.06;;;2.58;79.21
64644;BME280;51056;50.330;7.914;2022-11-20T05:45:35;100202.81;;;2.55;79.43
64644;BME280;51056;50.330;7.914;2022-11-20T05:48:46;100193.53;;;2.48;78.93
64644;BME280;51056;50.330;7.914;2022-11-20T05:51:49;100196.31;;;2.40;80.16
64644;BME280;51056;50.330;7.914;2022-11-20T05:54:52;100187.59;;;2.44;79.81
64644;BME280;51056;50.330;7.914;2022-11-20T05:58:01;100188.22;;;2.54;80.59
64644;BME280;51056;50.330;7.914;2022-11-20T06:01:16;100184.22;;;2.76;80.59
64644;BME280;51056;50.330;7.914;2022-11-20T06:04:20;100182.22;;;2.88;79.81
64644;BME280;51056;50.330;7.914;2022-11-20T06:07:23;100181.25;;;2.90;79.90
64644;BME280;51056;50.330;7.914;2022-11-20T06:10:27;100190.63;;;2.62;80.88
64644;BME280;51056;50.330;7.914;2022-11-20T06:13:30;100187.25;;;2.58;80.65
64644;BME280;51056;50.330;7.914;2022-11-20T06:16:34;100195.78;;;2.62;79.39
64644;BME280;51056;50.330;7.914;2022-11-20T06:19:37;100192.25;;;2.64;79.67
64644;BME280;51056;50.330;7.914;2022-11-20T06:22:40;100202.09;;;2.84;78.83
64644;BME280;51056;50.330;7.914;2022-11-20T06:25:47;100193.84;;;3.02;79.36
64644;BME280;51056;50.330;7.914;2022-11-20T06:28:50;100192.97;;;3.03;79.24
64644;BME280;51056;50.330;7.914;2022-11-20T06:31:58;100199.63;;;2.79;79.32
64644;BME280;51056;50.330;7.914;2022-11-20T06:35:01;100196.56;;;2.65;80.26
64644;BME280;51056;50.330;7.914;2022-11-20T06:38:04;100193.06;;;2.66;80.46
64644;BME280;51056;50.330;7.914;2022-11-20T06:41:17;100192.22;;;2.66;80.42
64644;BME280;51056;50.330;7.914;2022-11-20T06:44:20;100198.84;;;2.76;79.83
64644;BME280;51056;50.330;7.914;2022-11-20T06:47:27;100198.53;;;2.54;82.24
64644;BME280;51056;50.330;7.914;2022-11-20T06:50:30;100197.41;;;2.66;82.29
64644;BME280;51056;50.330;7.914;2022-11-20T06:53:33;100200.00;;;2.64;82.20
64644;BME280;51056;50.330;7.914;2022-11-20T06:56:37;100204.25;;;2.67;82.38
64644;BME280;51056;50.330;7.914;2022-11-20T06:59:40;100210.56;;;2.89;81.36
64644;BME280;51056;50.330;7.914;2022-11-20T07:02:44;100206.34;;;2.52;82.88
64644;BME280;51056;50.330;7.914;2022-11-20T07:05:47;100215.63;;;2.58;82.54
64644;BME280;51056;50.330;7.914;2022-11-20T07:08:51;100220.81;;;2.58;82.64
64644;BME280;51056;50.330;7.914;2022-11-20T07:11:55;100231.44;;;2.80;82.99
64644;BME280;51056;50.330;7.914;2022-11-20T07:14:58;100223.84;;;2.75;83.88
64644;BME280;51056;50.330;7.914;2022-11-20T07:18:01;100226.34;;;2.78;83.48
64644;BME280;51056;50.330;7.914;2022-11-20T07:21:06;100229.25;;;2.65;83.34
64644;BME280;51056;50.330;7.914;2022-11-20T07:24:09;100223.94;;;2.71;82.84
64644;BME280;51056;50.330;7.914;2022-11-20T07:27:13;100225.66;;;2.70;83.69
64644;BME280;51056;50.330;7.914;2022-11-20T07:30:18;100224.22;;;2.94;82.93
64644;BME280;51056;50.330;7.914;2022-11-20T07:33:21;100221.19;;;2.77;83.92
64644;BME280;51056;50.330;7.914;2022-11-20T07:36:24;100232.66;;;2.99;83.31
64644;BME280;51056;50.330;7.914;2022-11-20T07:39:28;100234.94;;;2.79;83.66
64644;BME280;51056;50.330;7.914;2022-11-20T07:42:31;100229.69;;;2.82;83.53
64644;BME280;51056;50.330;7.914;2022-11-20T07:45:35;100245.19;;;2.82;82.89
64644;BME280;51056;50.330;7.914;2022-11-20T07:48:39;100251.47;;;2.70;83.22
64644;BME280;51056;50.330;7.914;2022-11-20T07:51:43;100247.97;;;2.73;83.76
64644;BME280;51056;50.330;7.914;2022-11-20T07:54:46;100245.28;;;2.77;83.55
64644;BME280;51056;50.330;7.914;2022-11-20T07:57:54;100245.19;;;2.80;84.24
64644;BME280;51056;50.330;7.914;2022-11-20T08:01:06;100254.91;;;2.71;83.63
64644;BME280;51056;50.330;7.914;2022-11-20T08:04:10;100260.66;;;2.82;83.78
64644;BME280;51056;50.330;7.914;2022-11-20T08:07:14;100256.34;;;2.83;83.40
64644;BME280;51056;50.330;7.914;2022-11-20T08:10:17;100256.06;;;2.93;83.03
64644;BME280;51056;50.330;7.914;2022-11-20T08:13:20;100257.81;;;2.93;82.89
64644;BME280;51056;50.330;7.914;2022-11-20T08:16:45;100259.56;;;2.92;82.17
64644;BME280;51056;50.330;7.914;2022-11-20T08:19:48;100247.31;;;3.00;82.58
64644;BME280;51056;50.330;7.914;2022-11-20T08:22:51;100249.66;;;3.10;82.72
64644;BME280;51056;50.330;7.914;2022-11-20T08:25:55;100247.38;;;3.30;81.83
64644;BME280;51056;50.330;7.914;2022-11-20T08:28:58;100260.31;;;3.30;81.58
64644;BME280;51056;50.330;7.914;2022-11-20T08:32:06;100256.03;;;3.29;80.63
64644;BME280;51056;50.330;7.914;2022-11-20T08:35:10;100252.63;;;3.27;81.88
64644;BME280;51056;50.330;7.914;2022-11-20T08:38:14;100264.03;;;3.20;81.28
64644;BME280;51056;50.330;7.914;2022-11-20T08:41:18;100266.44;;;3.26;81.74
64644;BME280;51056;50.330;7.914;2022-11-20T08:44:28;100269.75;;;3.31;82.15
64644;BME280;51056;50.330;7.914;2022-11-20T08:47:31;100257.41;;;3.42;81.22
64644;BME280;51056;50.330;7.914;2022-11-20T08:50:34;100254.66;;;3.47;81.65
64644;BME280;51056;50.330;7.914;2022-11-20T08:53:38;100266.75;;;3.14;82.28
64644;BME280;51056;50.330;7.914;2022-11-20T08:56:42;100261.34;;;3.23;82.69
64644;BME280;51056;50.330;7.914;2022-11-20T08:59:45;100255.25;;;3.57;81.83
64644;BME280;51056;50.330;7.914;2022-11-20T09:02:48;100255.34;;;3.54;82.24
64644;BME280;51056;50.330;7.914;2022-11-20T09:06:05;100259.66;;;3.53;82.25
64644;BME280;51056;50.330;7.914;2022-11-20T09:09:09;100252.13;;;3.77;81.83
64644;BME280;51056;50.330;7.914;2022-11-20T09:12:12;100261.69;;;3.73;81.84
64644;BME280;51056;50.330;7.914;2022-11-20T09:15:16;100247.22;;;3.67;82.75
64644;BME280;51056;50.330;7.914;2022-11-20T09:18:19;100249.31;;;3.84;81.20
64644;BME280;51056;50.330;7.914;2022-11-20T09:21:23;100251.44;;;3.70;82.35
64644;BME280;51056;50.330;7.914;2022-11-20T09:24:27;100253.06;;;3.74;82.65
64644;BME280;51056;50.330;7.914;2022-11-20T09:27:31;100248.66;;;3.78;83.31
64644;BME280;51056;50.330;7.914;2022-11-20T09:30:35;100246.84;;;3.80;83.02
64644;BME280;51056;50.330;7.914;2022-11-20T09:33:38;100246.19;;;3.73;84.07
64644;BME280;51056;50.330;7.914;2022-11-20T09:41:04;100251.41;;;3.71;84.07
64644;BME280;51056;50.330;7.914;2022-11-20T09:44:24;100252.81;;;3.83;83.11
64644;BME280;51056;50.330;7.914;2022-11-20T09:54:34;100258.88;;;4.12;82.29
64644;BME280;51056;50.330;7.914;2022-11-20T09:57:42;100252.63;;;4.17;82.67
64644;BME280;51056;50.330;7.914;2022-11-20T10:00:47;100243.25;;;4.15;82.58
64644;BME280;51056;50.330;7.914;2022-11-20T10:04:15;100253.69;;;4.12;83.07
64644;BME280;51056;50.330;7.914;2022-11-20T10:07:24;100246.88;;;4.08;84.38
64644;BME280;51056;50.330;7.914;2022-11-20T10:10:54;100243.81;;;4.25;84.04
64644;BME280;51056;50.330;7.914;2022-11-20T10:20:17;100224.34;;;3.83;85.75
64644;BME280;51056;50.330;7.914;2022-11-20T10:23:58;100212.84;;;3.93;85.96
64644;BME280;51056;50.330;7.914;2022-11-20T10:30:38;100218.16;;;4.17;84.06
64644;BME280;51056;50.330;7.914;2022-11-20T10:33:45;100212.88;;;4.20;84.05
64644;BME280;51056;50.330;7.914;2022-11-20T10:36:59;100214.38;;;4.27;83.51
64644;BME280;51056;50.330;7.914;2022-11-20T10:43:29;100206.66;;;4.54;82.72
64644;BME280;51056;50.330;7.914;2022-11-20T10:46:45;100201.59;;;4.49;82.42
64644;BME280;51056;50.330;7.914;2022-11-20T10:49:51;100199.97;;;4.73;82.04
64644;BME280;51056;50.330;7.914;2022-11-20T10:53:20;100191.03;;;4.82;81.37
64644;BME280;51056;50.330;7.914;2022-11-20T11:00:11;100184.25;;;4.78;81.43
64644;BME280;51056;50.330;7.914;2022-11-20T11:03:23;100189.94;;;4.89;81.35
64644;BME280;51056;50.330;7.914;2022-11-20T11:06:39;100187.06;;;4.97;81.43
64644;BME280;51056;50.330;7.914;2022-11-20T11:09:48;100176.81;;;4.94;81.37
64644;BME280;51056;50.330;7.914;2022-11-20T11:12:52;100165.09;;;5.07;81.78
64644;BME280;51056;50.330;7.914;2022-11-20T11:15:55;100166.31;;;5.22;81.19
64644;BME280;51056;50.330;7.914;2022-11-20T11:19:12;100164.91;;;5.13;81.53
64644;BME280;51056;50.330;7.914;2022-11-20T11:22:17;100161.75;;;5.28;80.25
64644;BME280;51056;50.330;7.914;2022-11-20T11:25:29;100157.59;;;5.48;79.52
64644;BME280;51056;50.330;7.914;2022-11-20T11:28:33;100160.97;;;5.50;80.30
64644;BME280;51056;50.330;7.914;2022-11-20T11:31:37;100145.56;;;5.69;80.86
64644;BME280;51056;50.330;7.914;2022-11-20T11:34:41;100142.97;;;5.45;81.59
64644;BME280;51056;50.330;7.914;2022-11-20T11:37:45;100145.41;;;5.50;80.54
64644;BME280;51056;50.330;7.914;2022-11-20T11:40:53;100131.09;;;5.63;80.77
64644;BME280;51056;50.330;7.914;2022-11-20T11:44:12;100144.81;;;5.43;81.07
64644;BME280;51056;50.330;7.914;2022-11-20T11:50:50;100140.78;;;5.11;82.50
64644;BME280;51056;50.330;7.914;2022-11-20T11:53:57;100137.69;;;5.25;81.96
64644;BME280;51056;50.330;7.914;2022-11-20T11:57:07;100127.94;;;5.31;81.36
64644;BME280;51056;50.330;7.914;2022-11-20T12:00:15;100127.19;;;5.51;80.34
64644;BME280;51056;50.330;7.914;2022-11-20T12:03:24;100108.31;;;5.71;80.08
64644;BME280;51056;50.330;7.914;2022-11-20T12:06:31;100106.81;;;5.64;80.33
64644;BME280;51056;50.330;7.914;2022-11-20T12:09:41;100100.41;;;5.51;80.25
64644;BME280;51056;50.330;7.914;2022-11-20T12:12:52;100098.44;;;5.57;80.69
64644;BME280;51056;50.330;7.914;2022-11-20T12:15:58;100089.13;;;5.52;81.41
64644;BME280;51056;50.330;7.914;2022-11-20T12:19:11;100093.47;;;5.51;80.95
64644;BME280;51056;50.330;7.914;2022-11-20T12:22:35;100085.44;;;5.35;83.02
64644;BME280;51056;50.330;7.914;2022-11-20T12:25:44;100075.75;;;5.41;81.88
64644;BME280;51056;50.330;7.914;2022-11-20T12:32:31;100080.47;;;5.29;82.69
64644;BME280;51056;50.330;7.914;2022-11-20T12:36:19;100080.22;;;5.13;84.35
64644;BME280;51056;50.330;7.914;2022-11-20T12:49:50;100062.06;;;5.37;85.86
64644;BME280;51056;50.330;7.914;2022-11-20T13:00:15;100048.31;;;5.57;85.68
64644;BME280;51056;50.330;7.914;2022-11-20T13:06:35;100052.00;;;5.51;85.51
64644;BME280;51056;50.330;7.914;2022-11-20T13:09:47;100044.09;;;5.54;85.42
64644;BME280;51056;50.330;7.914;2022-11-20T13:12:58;100042.59;;;5.49;86.19
64644;BME280;51056;50.330;7.914;2022-11-20T13:16:08;100044.34;;;5.70;85.24
64644;BME280;51056;50.330;7.914;2022-11-20T13:19:16;100035.31;;;5.58;85.93
64644;BME280;51056;50.330;7.914;2022-11-20T13:25:49;100025.81;;;5.79;85.18
64644;BME280;51056;50.330;7.914;2022-11-20T13:29:17;100028.00;;;5.68;84.71
64644;BME280;51056;50.330;7.914;2022-11-20T13:32:32;100017.16;;;5.58;86.25
64644;BME280;51056;50.330;7.914;2022-11-20T13:35:40;100022.38;;;5.57;86.46
64644;BME280;51056;50.330;7.914;2022-11-20T13:38:52;100022.47;;;5.55;87.42
64644;BME280;51056;50.330;7.914;2022-11-20T13:41:59;100015.81;;;5.70;86.48
64644;BME280;51056;50.330;7.914;2022-11-20T13:45:09;99999.94;;;5.78;86.52
64644;BME280;51056;50.330;7.914;2022-11-20T13:48:21;100013.09;;;5.73;86.48
64644;BME280;51056;50.330;7.914;2022-11-20T13:51:41;100005.50;;;5.69;86.75
64644;BME280;51056;50.330;7.914;2022-11-20T13:54:51;99991.03;;;5.63;86.72
64644;BME280;51056;50.330;7.914;2022-11-20T14:01:28;99978.31;;;5.77;87.11
64644;BME280;51056;50.330;7.914;2022-11-20T14:04:38;99984.28;;;5.59;87.79
64644;BME280;51056;50.330;7.914;2022-11-20T14:07:51;99975.59;;;5.60;88.10
64644;BME280;51056;50.330;7.914;2022-11-20T14:14:22;99963.53;;;5.59;87.23
64644;BME280;51056;50.330;7.914;2022-11-20T14:17:35;99963.16;;;5.68;87.85
64644;BME280;51056;50.330;7.914;2022-11-20T14:20:43;99961.78;;;5.59;88.17
64644;BME280;51056;50.330;7.914;2022-11-20T14:23:48;99957.22;;;5.65;87.84
64644;BME280;51056;50.330;7.914;2022-11-20T14:26:56;99954.25;;;5.53;87.94
64644;BME280;51056;50.330;7.914;2022-11-20T14:30:01;99953.16;;;5.59;88.15
64644;BME280;51056;50.330;7.914;2022-11-20T14:33:06;99957.38;;;5.62;87.64
64644;BME280;51056;50.330;7.914;2022-11-20T14:36:17;99946.78;;;5.46;88.87
64644;BME280;51056;50.330;7.914;2022-11-20T14:39:25;99947.38;;;5.52;88.72
64644;BME280;51056;50.330;7.914;2022-11-20T14:42:33;99941.63;;;5.66;87.81
64644;BME280;51056;50.330;7.914;2022-11-20T14:45:40;99943.16;;;5.50;88.59
64644;BME280;51056;50.330;7.914;2022-11-20T14:49:00;99931.47;;;5.40;89.07
64644;BME280;51056;50.330;7.914;2022-11-20T14:52:24;99929.06;;;5.35;88.54
64644;BME280;51056;50.330;7.914;2022-11-20T14:55:36;99930.00;;;5.32;89.20
64644;BME280;51056;50.330;7.914;2022-11-20T14:58:41;99927.13;;;5.40;88.61
64644;BME280;51056;50.330;7.914;2022-11-20T15:01:53;99918.63;;;5.36;89.39
64644;BME280;51056;50.330;7.914;2022-11-20T15:04:58;99910.41;;;5.47;88.75
64644;BME280;51056;50.330;7.914;2022-11-20T15:08:07;99912.63;;;5.36;89.02
64644;BME280;51056;50.330;7.914;2022-11-20T15:11:20;99914.34;;;5.35;89.23
64644;BME280;51056;50.330;7.914;2022-11-20T15:14:27;99902.53;;;5.28;89.32
64644;BME280;51056;50.330;7.914;2022-11-20T15:17:32;99902.50;;;5.30;89.93
64644;BME280;51056;50.330;7.914;2022-11-20T15:20:37;99908.91;;;5.42;89.76
64644;BME280;51056;50.330;7.914;2022-11-20T15:23:42;99895.69;;;5.48;89.20
64644;BME280;51056;50.330;7.914;2022-11-20T15:26:46;99898.66;;;5.39;88.69
64644;BME280;51056;50.330;7.914;2022-11-20T15:29:53;99895.69;;;5.48;88.68
64644;BME280;51056;50.330;7.914;2022-11-20T15:32:59;99883.81;;;5.42;89.06
64644;BME280;51056;50.330;7.914;2022-11-20T15:36:02;99885.44;;;5.45;89.06
64644;BME280;51056;50.330;7.914;2022-11-20T15:39:06;99878.00;;;5.37;88.93
64644;BME280;51056;50.330;7.914;2022-11-20T15:42:18;99880.25;;;5.45;88.76
64644;BME280;51056;50.330;7.914;2022-11-20T15:45:24;99878.63;;;5.42;89.56
64644;BME280;51056;50.330;7.914;2022-11-20T15:48:30;99875.28;;;5.40;90.03
64644;BME280;51056;50.330;7.914;2022-11-20T15:51:38;99870.94;;;5.41;89.76
64644;BME280;51056;50.330;7.914;2022-11-20T15:54:41;99866.00;;;5.34;89.55
64644;BME280;51056;50.330;7.914;2022-11-20T15:57:46;99868.53;;;5.36;89.83
64644;BME280;51056;50.330;7.914;2022-11-20T16:00:50;99869.84;;;5.46;89.47
64644;BME280;51056;50.330;7.914;2022-11-20T16:03:53;99865.75;;;5.41;90.79
64644;BME280;51056;50.330;7.914;2022-11-20T16:06:57;99876.16;;;5.19;91.65
64644;BME280;51056;50.330;7.914;2022-11-20T16:10:03;99875.78;;;5.06;92.85
64644;BME280;51056;50.330;7.914;2022-11-20T16:13:17;99868.72;;;5.31;91.93
64644;BME280;51056;50.330;7.914;2022-11-20T16:16:39;99857.31;;;5.35;92.21
64644;BME280;51056;50.330;7.914;2022-11-20T16:19:44;99848.50;;;5.40;91.50
64644;BME280;51056;50.330;7.914;2022-11-20T16:22:47;99836.94;;;5.26;92.02
64644;BME280;51056;50.330;7.914;2022-11-20T16:25:51;99826.97;;;5.38;92.03
64644;BME280;51056;50.330;7.914;2022-11-20T16:28:55;99817.66;;;5.33;92.12
64644;BME280;51056;50.330;7.914;2022-11-20T16:31:59;99816.19;;;5.26;92.47
64644;BME280;51056;50.330;7.914;2022-11-20T16:35:08;99800.03;;;5.21;92.62
64644;BME280;51056;50.330;7.914;2022-11-20T16:38:12;99806.97;;;5.21;92.92
64644;BME280;51056;50.330;7.914;2022-11-20T16:41:16;99798.72;;;5.31;92.69
64644;BME280;51056;50.330;7.914;2022-11-20T16:44:20;99796.56;;;5.41;91.91
64644;BME280;51056;50.330;7.914;2022-11-20T16:47:24;99787.09;;;5.20;92.95
64644;BME280;51056;50.330;7.914;2022-11-20T16:50:27;99782.13;;;5.15;93.23
64644;BME280;51056;50.330;7.914;2022-11-20T16:53:32;99782.72;;;5.22;92.79
64644;BME280;51056;50.330;7.914;2022-11-20T16:56:36;99771.56;;;5.40;92.54
64644;BME280;51056;50.330;7.914;2022-11-20T16:59:39;99774.91;;;5.23;93.25
64644;BME280;51056;50.330;7.914;2022-11-20T17:02:43;99766.66;;;5.34;92.25
64644;BME280;51056;50.330;7.914;2022-11-20T17:05:47;99761.66;;;5.50;91.94
64644;BME280;51056;50.330;7.914;2022-11-20T17:08:53;99757.06;;;5.36;92.12
64644;BME280;51056;50.330;7.914;2022-11-20T17:12:00;99754.59;;;5.33;92.50
64644;BME280;51056;50.330;7.914;2022-11-20T17:15:04;99751.22;;;5.31;92.93
64644;BME280;51056;50.330;7.914;2022-11-20T17:18:07;99737.28;;;5.33;93.28
64644;BME280;51056;50.330;7.914;2022-11-20T17:21:11;99736.78;;;5.25;93.10
64644;BME280;51056;50.330;7.914;2022-11-20T17:24:15;99739.22;;;5.28;92.85
64644;BME280;51056;50.330;7.914;2022-11-20T17:27:19;99737.75;;;5.43;92.34
64644;BME280;51056;50.330;7.914;2022-11-20T17:30:23;99735.06;;;5.45;92.44
64644;BME280;51056;50.330;7.914;2022-11-20T17:33:27;99730.09;;;5.40;92.85
64644;BME280;51056;50.330;7.914;2022-11-20T17:36:31;99725.63;;;5.44;92.56
64644;BME280;51056;50.330;7.914;2022-11-20T17:39:35;99720.81;;;5.34;93.00
64644;BME280;51056;50.330;7.914;2022-11-20T17:42:39;99722.88;;;5.47;92.38
64644;BME280;51056;50.330;7.914;2022-11-20T17:45:43;99717.63;;;5.48;92.38